sensor_id;sensor_type;location;lat;lon;timestamp;pressure;altitude;pressure_sealevel;temperature;humidity
45523;BME280;31254;51.680;5.394;2022-11-20T00:01:27;101409.59;;;-2.13;82.43
45523;BME280;31254;51.680;5.394;2022-11-20T00:03:56;101398.78;;;-2.10;82.22
45523;BME280;31254;51.680;5.394;2022-11-20T00:06:27;101393.59;;;-2.15;81.98
45523;BME280;31254;51.680;5.394;2022-11-20T00:08:56;101396.97;;;-2.10;81.89
45523;BME280;31254;51.680;5.394;2022-11-20T00:11:25;101398.72;;;-2.09;82.66
45523;BME280;31254;51.680;5.394;2022-11-20T00:13:57;101396.09;;;-2.10;82.06
45523;BME280;31254;51.680;5.394;2022-11-20T00:16:26;101390.06;;;-2.15;82.32
45523;BME280;31254;51.680;5.394;2022-11-20T00:18:53;101384.75;;;-2.17;82.59
45523;BME280;31254;51.680;5.394;2022-11-20T00:21:26;101389.31;;;-2.21;82.61
45523;BME280;31254;51.680;5.394;2022-11-20T00:23:55;101388.56;;;-2.24;82.69
45523;BME280;31254;51.680;5.394;2022-11-20T00:26:23;101391.44;;;-2.30;83.15
45523;BME280;31254;51.680;5.394;2022-11-20T00:28:55;101388.63;;;-2.26;82.97
45523;BME280;31254;51.680;5.394;2022-11-20T00:31:22;101395.72;;;-2.25;82.98
45523;BME280;31254;51.680;5.394;2022-11-20T00:33:49;101392.00;;;-2.21;82.86
45523;BME280;31254;51.680;5.394;2022-11-20T00:36:18;101383.97;;;-2.21;82.20
45523;BME280;31254;51.680;5.394;2022-11-20T00:38:45;101372.63;;;-2.27;82.91
45523;BME280;31254;51.680;5.394;2022-11-20T00:41:14;101373.44;;;-2.25;82.76
45523;BME280;31254;51.680;5.394;2022-11-20T00:43:42;101381.59;;;-2.28;82.91
45523;BME280;31254;51.680;5.394;2022-11-20T00:46:14;101362.50;;;-2.43;82.07
45523;BME280;31254;51.680;5.394;2022-11-20T00:48:42;101374.97;;;-2.43;82.27
45523;BME280;31254;51.680;5.394;2022-11-20T00:51:08;101372.53;;;-2.49;82.58
45523;BME280;31254;51.680;5.394;2022-11-20T00:53:35;101372.84;;;-2.59;82.69
45523;BME280;31254;51.680;5.394;2022-11-20T00:56:07;101385.91;;;-2.49;82.40
45523;BME280;31254;51.680;5.394;2022-11-20T00:58:38;101370.03;;;-2.54;82.77
45523;BME280;31254;51.680;5.394;2022-11-20T01:01:05;101386.59;;;-2.44;83.57
45523;BME280;31254;51.680;5.394;2022-11-20T01:03:34;101384.75;;;-2.42;83.29
45523;BME280;31254;51.680;5.394;2022-11-20T01:06:03;101393.63;;;-2.42;83.45
45523;BME280;31254;51.680;5.394;2022-11-20T01:08:32;101386.56;;;-2.43;83.55
45523;BME280;31254;51.680;5.394;2022-11-20T01:11:10;101384.00;;;-2.46;83.36
45523;BME280;31254;51.680;5.394;2022-11-20T01:13:37;101374.97;;;-2.43;83.64
45523;BME280;31254;51.680;5.394;2022-11-20T01:16:11;101392.56;;;-2.36;83.46
45523;BME280;31254;51.680;5.394;2022-11-20T01:18:41;101376.72;;;-2.42;83.70
45523;BME280;31254;51.680;5.394;2022-11-20T01:21:13;101387.31;;;-2.39;84.39
45523;BME280;31254;51.680;5.394;2022-11-20T01:23:42;101389.06;;;-2.38;83.88
45523;BME280;31254;51.680;5.394;2022-11-20T01:26:20;101376.63;;;-2.39;83.64
45523;BME280;31254;51.680;5.394;2022-11-20T01:28:48;101391.84;;;-2.41;84.49
45523;BME280;31254;51.680;5.394;2022-11-20T01:31:20;101375.91;;;-2.44;84.47
45523;BME280;31254;51.680;5.394;2022-11-20T01:33:49;101382.13;;;-2.44;84.31
45523;BME280;31254;51.680;5.394;2022-11-20T01:36:17;101379.50;;;-2.45;83.85
45523;BME280;31254;51.680;5.394;2022-11-20T01:38:44;101389.34;;;-2.46;83.92
45523;BME280;31254;51.680;5.394;2022-11-20T01:41:12;101376.03;;;-2.47;83.83
45523;BME280;31254;51.680;5.394;2022-11-20T01:43:59;101385.00;;;-2.50;84.31
45523;BME280;31254;51.680;5.394;2022-11-20T01:46:28;101368.38;;;-2.58;84.44
45523;BME280;31254;51.680;5.394;2022-11-20T01:49:04;101371.09;;;-2.60;84.74
45523;BME280;31254;51.680;5.394;2022-11-20T01:51:57;101378.09;;;-2.55;84.36
45523;BME280;31254;51.680;5.394;2022-11-20T01:54:32;101374.56;;;-2.58;84.64
45523;BME280;31254;51.680;5.394;2022-11-20T01:57:02;101376.53;;;-2.63;84.25
45523;BME280;31254;51.680;5.394;2022-11-20T01:59:30;101379.16;;;-2.61;84.69
45523;BME280;31254;51.680;5.394;2022-11-20T02:01:57;101360.91;;;-2.73;84.49
45523;BME280;31254;51.680;5.394;2022-11-20T02:04:24;101374.88;;;-2.65;84.57
45523;BME280;31254;51.680;5.394;2022-11-20T02:07:01;101380.16;;;-2.64;84.71
45523;BME280;31254;51.680;5.394;2022-11-20T02:09:28;101383.75;;;-2.65;84.37
45523;BME280;31254;51.680;5.394;2022-11-20T02:11:58;101376.63;;;-2.66;84.60
45523;BME280;31254;51.680;5.394;2022-11-20T02:14:25;101374.03;;;-2.67;84.90
45523;BME280;31254;51.680;5.394;2022-11-20T02:16:54;101373.22;;;-2.69;84.46
45523;BME280;31254;51.680;5.394;2022-11-20T02:19:27;101358.47;;;-2.81;84.97
45523;BME280;31254;51.680;5.394;2022-11-20T02:24:39;101367.19;;;-2.76;84.38
45523;BME280;31254;51.680;5.394;2022-11-20T02:27:09;101368.13;;;-2.77;83.93
45523;BME280;31254;51.680;5.394;2022-11-20T02:29:55;101353.28;;;-2.86;84.44
45523;BME280;31254;51.680;5.394;2022-11-20T02:32:35;101362.97;;;-2.82;83.93
45523;BME280;31254;51.680;5.394;2022-11-20T02:35:10;101365.69;;;-2.83;84.71
45523;BME280;31254;51.680;5.394;2022-11-20T02:38:01;101370.22;;;-2.87;84.20
45523;BME280;31254;51.680;5.394;2022-11-20T02:40:32;101359.72;;;-2.91;84.02
45523;BME280;31254;51.680;5.394;2022-11-20T02:43:00;101361.34;;;-2.87;84.69
45523;BME280;31254;51.680;5.394;2022-11-20T02:45:29;101364.84;;;-2.85;84.89
45523;BME280;31254;51.680;5.394;2022-11-20T02:47:56;101366.69;;;-2.87;84.07
45523;BME280;31254;51.680;5.394;2022-11-20T02:50:23;101364.03;;;-2.87;84.12
45523;BME280;31254;51.680;5.394;2022-11-20T02:52:50;101358.78;;;-2.90;84.52
45523;BME280;31254;51.680;5.394;2022-11-20T02:55:16;101365.88;;;-2.89;84.71
45523;BME280;31254;51.680;5.394;2022-11-20T02:57:45;101353.50;;;-2.92;84.53
45523;BME280;31254;51.680;5.394;2022-11-20T03:00:12;101348.28;;;-2.97;84.39
45523;BME280;31254;51.680;5.394;2022-11-20T03:02:39;101351.72;;;-2.91;84.25
45523;BME280;31254;51.680;5.394;2022-11-20T03:05:06;101354.47;;;-2.95;84.46
45523;BME280;31254;51.680;5.394;2022-11-20T03:07:32;101348.28;;;-2.97;84.10
45523;BME280;31254;51.680;5.394;2022-11-20T03:10:02;101346.56;;;-2.98;84.89
45523;BME280;31254;51.680;5.394;2022-11-20T03:12:29;101349.19;;;-2.96;84.63
45523;BME280;31254;51.680;5.394;2022-11-20T03:14:55;101344.75;;;-2.97;84.43
45523;BME280;31254;51.680;5.394;2022-11-20T03:17:24;101343.91;;;-2.98;84.74
45523;BME280;31254;51.680;5.394;2022-11-20T03:19:51;101346.53;;;-2.96;84.88
45523;BME280;31254;51.680;5.394;2022-11-20T03:22:18;101329.78;;;-3.01;84.16
45523;BME280;31254;51.680;5.394;2022-11-20T03:24:44;101345.63;;;-2.97;84.89
45523;BME280;31254;51.680;5.394;2022-11-20T03:27:13;101332.50;;;-3.03;84.95
45523;BME280;31254;51.680;5.394;2022-11-20T03:29:42;101337.47;;;-2.92;84.36
45523;BME280;31254;51.680;5.394;2022-11-20T03:32:11;101333.84;;;-2.89;83.48
45523;BME280;31254;51.680;5.394;2022-11-20T03:34:38;101334.84;;;-2.94;84.28
45523;BME280;31254;51.680;5.394;2022-11-20T03:37:07;101333.06;;;-2.93;83.68
45523;BME280;31254;51.680;5.394;2022-11-20T03:39:38;101327.84;;;-2.96;84.11
45523;BME280;31254;51.680;5.394;2022-11-20T03:42:08;101325.31;;;-3.01;83.72
45523;BME280;31254;51.680;5.394;2022-11-20T03:44:55;101329.72;;;-3.00;84.68
45523;BME280;31254;51.680;5.394;2022-11-20T03:47:22;101316.50;;;-3.03;84.06
45523;BME280;31254;51.680;5.394;2022-11-20T03:49:48;101320.03;;;-3.02;84.62
45523;BME280;31254;51.680;5.394;2022-11-20T03:52:17;101320.13;;;-3.05;84.98
45523;BME280;31254;51.680;5.394;2022-11-20T03:54:46;101324.53;;;-3.04;84.41
45523;BME280;31254;51.680;5.394;2022-11-20T03:57:12;101314.72;;;-3.04;84.83
45523;BME280;31254;51.680;5.394;2022-11-20T03:59:39;101306.00;;;-3.09;84.76
45523;BME280;31254;51.680;5.394;2022-11-20T04:02:08;101310.25;;;-3.03;84.63
45523;BME280;31254;51.680;5.394;2022-11-20T04:04:35;101308.69;;;-3.09;84.83
45523;BME280;31254;51.680;5.394;2022-11-20T04:07:02;101312.22;;;-3.08;84.83
45523;BME280;31254;51.680;5.394;2022-11-20T04:09:36;101309.59;;;-3.10;84.76
45523;BME280;31254;51.680;5.394;2022-11-20T04:12:02;101305.16;;;-3.11;85.23
45523;BME280;31254;51.680;5.394;2022-11-20T04:14:31;101297.25;;;-3.13;85.73
45523;BME280;31254;51.680;5.394;2022-11-20T04:16:58;101300.78;;;-3.12;84.85
45523;BME280;31254;51.680;5.394;2022-11-20T04:19:25;101293.63;;;-3.12;84.86
45523;BME280;31254;51.680;5.394;2022-11-20T04:21:53;101298.09;;;-3.12;85.11
45523;BME280;31254;51.680;5.394;2022-11-20T04:24:22;101301.03;;;-3.20;84.53
45523;BME280;31254;51.680;5.394;2022-11-20T04:26:49;101295.81;;;-3.24;85.32
45523;BME280;31254;51.680;5.394;2022-11-20T04:29:15;101298.31;;;-3.18;85.46
45523;BME280;31254;51.680;5.394;2022-11-20T04:31:42;101279.72;;;-3.21;84.62
45523;BME280;31254;51.680;5.394;2022-11-20T04:34:11;101285.88;;;-3.19;85.08
45523;BME280;31254;51.680;5.394;2022-11-20T04:36:40;101279.50;;;-3.15;85.43
45523;BME280;31254;51.680;5.394;2022-11-20T04:39:07;101270.59;;;-3.14;85.37
45523;BME280;31254;51.680;5.394;2022-11-20T04:41:35;101285.78;;;-3.16;85.14
45523;BME280;31254;51.680;5.394;2022-11-20T04:44:04;101287.63;;;-3.18;85.12
45523;BME280;31254;51.680;5.394;2022-11-20T04:46:36;101283.09;;;-3.16;85.80
45523;BME280;31254;51.680;5.394;2022-11-20T04:49:03;101298.31;;;-3.18;85.13
45523;BME280;31254;51.680;5.394;2022-11-20T04:51:31;101286.91;;;-3.23;85.37
45523;BME280;31254;51.680;5.394;2022-11-20T04:54:00;101269.13;;;-3.24;85.66
45523;BME280;31254;51.680;5.394;2022-11-20T04:56:27;101287.53;;;-3.15;84.99
45523;BME280;31254;51.680;5.394;2022-11-20T04:59:00;101264.66;;;-3.22;85.22
45523;BME280;31254;51.680;5.394;2022-11-20T05:01:26;101275.13;;;-3.18;85.64
45523;BME280;31254;51.680;5.394;2022-11-20T05:03:53;101266.38;;;-3.21;85.71
45523;BME280;31254;51.680;5.394;2022-11-20T05:06:20;101272.53;;;-3.19;85.92
45523;BME280;31254;51.680;5.394;2022-11-20T05:08:49;101247.13;;;-3.31;85.31
45523;BME280;31254;51.680;5.394;2022-11-20T05:11:20;101260.97;;;-3.20;85.66
45523;BME280;31254;51.680;5.394;2022-11-20T05:13:48;101267.19;;;-3.19;85.79
45523;BME280;31254;51.680;5.394;2022-11-20T05:16:24;101240.38;;;-3.41;85.64
45523;BME280;31254;51.680;5.394;2022-11-20T05:18:52;101266.06;;;-3.39;85.66
45523;BME280;31254;51.680;5.394;2022-11-20T05:21:19;101272.53;;;-3.46;85.64
45523;BME280;31254;51.680;5.394;2022-11-20T05:23:46;101276.25;;;-3.52;84.93
45523;BME280;31254;51.680;5.394;2022-11-20T05:26:15;101260.25;;;-3.52;84.88
45523;BME280;31254;51.680;5.394;2022-11-20T05:28:42;101271.03;;;-3.55;84.95
45523;BME280;31254;51.680;5.394;2022-11-20T05:31:14;101268.38;;;-3.55;85.61
45523;BME280;31254;51.680;5.394;2022-11-20T05:33:42;101260.19;;;-3.50;85.67
45523;BME280;31254;51.680;5.394;2022-11-20T05:36:10;101263.75;;;-3.50;85.84
45523;BME280;31254;51.680;5.394;2022-11-20T05:38:38;101263.75;;;-3.50;85.50
45523;BME280;31254;51.680;5.394;2022-11-20T05:43:33;101266.31;;;-3.46;85.64
45523;BME280;31254;51.680;5.394;2022-11-20T05:46:00;101272.53;;;-3.46;85.20
45523;BME280;31254;51.680;5.394;2022-11-20T05:48:27;101262.06;;;-3.52;85.70
45523;BME280;31254;51.680;5.394;2022-11-20T05:50:54;101264.56;;;-3.47;85.47
45523;BME280;31254;51.680;5.394;2022-11-20T05:53:25;101285.88;;;-3.46;85.73
45523;BME280;31254;51.680;5.394;2022-11-20T05:56:00;101275.28;;;-3.49;85.50
45523;BME280;31254;51.680;5.394;2022-11-20T05:58:27;101268.25;;;-3.52;85.52
45523;BME280;31254;51.680;5.394;2022-11-20T06:00:54;101278.88;;;-3.50;85.87
45523;BME280;31254;51.680;5.394;2022-11-20T06:03:23;101285.97;;;-3.49;86.28
45523;BME280;31254;51.680;5.394;2022-11-20T06:05:50;101294.72;;;-3.45;85.57
45523;BME280;31254;51.680;5.394;2022-11-20T06:08:18;101285.00;;;-3.46;85.84
45523;BME280;31254;51.680;5.394;2022-11-20T06:10:45;101287.66;;;-3.46;85.86
45523;BME280;31254;51.680;5.394;2022-11-20T06:13:11;101295.72;;;-3.48;86.31
45523;BME280;31254;51.680;5.394;2022-11-20T06:15:38;101297.50;;;-3.49;86.16
45523;BME280;31254;51.680;5.394;2022-11-20T06:18:05;101294.00;;;-3.51;86.10
45523;BME280;31254;51.680;5.394;2022-11-20T06:20:31;101284.16;;;-3.49;86.02
45523;BME280;31254;51.680;5.394;2022-11-20T06:23:04;101271.94;;;-3.56;86.16
45523;BME280;31254;51.680;5.394;2022-11-20T06:25:31;101270.19;;;-3.57;85.87
45523;BME280;31254;51.680;5.394;2022-11-20T06:27:59;101262.16;;;-3.55;86.15
45523;BME280;31254;51.680;5.394;2022-11-20T06:30:26;101274.47;;;-3.51;85.63
45523;BME280;31254;51.680;5.394;2022-11-20T06:32:53;101275.09;;;-3.43;85.82
45523;BME280;31254;51.680;5.394;2022-11-20T06:35:19;101262.81;;;-3.49;85.67
45523;BME280;31254;51.680;5.394;2022-11-20T06:37:48;101276.81;;;-3.42;85.99
45523;BME280;31254;51.680;5.394;2022-11-20T06:40:15;101287.34;;;-3.37;85.50
45523;BME280;31254;51.680;5.394;2022-11-20T06:42:41;101275.81;;;-3.38;86.10
45523;BME280;31254;51.680;5.394;2022-11-20T06:45:08;101263.53;;;-3.43;85.86
45523;BME280;31254;51.680;5.394;2022-11-20T06:47:35;101267.03;;;-3.41;85.38
45523;BME280;31254;51.680;5.394;2022-11-20T06:50:02;101261.47;;;-3.34;86.06
45523;BME280;31254;51.680;5.394;2022-11-20T06:52:29;101259.59;;;-3.32;85.38
45523;BME280;31254;51.680;5.394;2022-11-20T06:54:55;101265.84;;;-3.33;85.88
45523;BME280;31254;51.680;5.394;2022-11-20T06:57:22;101263.94;;;-3.29;85.71
45523;BME280;31254;51.680;5.394;2022-11-20T06:59:48;101263.81;;;-3.24;84.98
45523;BME280;31254;51.680;5.394;2022-11-20T07:02:15;101251.34;;;-3.24;85.75
45523;BME280;31254;51.680;5.394;2022-11-20T07:04:41;101242.50;;;-3.26;85.73
45523;BME280;31254;51.680;5.394;2022-11-20T07:07:08;101246.00;;;-3.24;85.58
45523;BME280;31254;51.680;5.394;2022-11-20T07:09:35;101244.22;;;-3.23;85.61
45523;BME280;31254;51.680;5.394;2022-11-20T07:12:01;101243.22;;;-3.21;85.09
45523;BME280;31254;51.680;5.394;2022-11-20T07:14:28;101229.81;;;-3.19;84.96
45523;BME280;31254;51.680;5.394;2022-11-20T07:16:55;101248.19;;;-3.10;85.03
45523;BME280;31254;51.680;5.394;2022-11-20T07:19:21;101253.22;;;-3.01;84.86
45523;BME280;31254;51.680;5.394;2022-11-20T07:21:49;101262.81;;;-2.95;84.83
45523;BME280;31254;51.680;5.394;2022-11-20T07:24:15;101258.31;;;-2.93;84.28
45523;BME280;31254;51.680;5.394;2022-11-20T07:26:47;101248.38;;;-2.89;84.79
45523;BME280;31254;51.680;5.394;2022-11-20T07:29:15;101260.38;;;-2.76;85.08
45523;BME280;31254;51.680;5.394;2022-11-20T07:31:43;101251.94;;;-2.64;83.95
45523;BME280;31254;51.680;5.394;2022-11-20T07:34:12;101241.66;;;-2.51;84.40
45523;BME280;31254;51.680;5.394;2022-11-20T07:36:41;101239.69;;;-2.46;83.83
45523;BME280;31254;51.680;5.394;2022-11-20T07:39:07;101245.34;;;-2.30;83.81
45523;BME280;31254;51.680;5.394;2022-11-20T07:41:34;101241.38;;;-2.19;83.34
45523;BME280;31254;51.680;5.394;2022-11-20T07:44:01;101239.22;;;-2.10;83.31
45523;BME280;31254;51.680;5.394;2022-11-20T07:46:27;101239.28;;;-2.11;83.35
45523;BME280;31254;51.680;5.394;2022-11-20T07:48:54;101246.72;;;-2.19;83.37
45523;BME280;31254;51.680;5.394;2022-11-20T07:51:21;101246.13;;;-2.28;83.39
45523;BME280;31254;51.680;5.394;2022-11-20T07:53:52;101232.84;;;-2.29;82.97
45523;BME280;31254;51.680;5.394;2022-11-20T07:56:19;101244.09;;;-2.21;82.96
45523;BME280;31254;51.680;5.394;2022-11-20T07:58:46;101253.72;;;-2.15;83.04
45523;BME280;31254;51.680;5.394;2022-11-20T08:01:12;101244.91;;;-2.19;82.56
45523;BME280;31254;51.680;5.394;2022-11-20T08:03:44;101254.91;;;-2.00;82.13
45523;BME280;31254;51.680;5.394;2022-11-20T08:06:10;101241.59;;;-2.02;82.01
45523;BME280;31254;51.680;5.394;2022-11-20T08:08:37;101250.94;;;-1.90;82.25
45523;BME280;31254;51.680;5.394;2022-11-20T08:11:08;101243.47;;;-1.82;82.36
45523;BME280;31254;51.680;5.394;2022-11-20T08:13:53;101244.66;;;-1.67;82.07
45523;BME280;31254;51.680;5.394;2022-11-20T08:16:48;101249.59;;;-1.56;81.80
45523;BME280;31254;51.680;5.394;2022-11-20T08:19:17;101245.53;;;-1.44;81.78
45523;BME280;31254;51.680;5.394;2022-11-20T08:21:46;101238.19;;;-1.39;81.31
45523;BME280;31254;51.680;5.394;2022-11-20T08:24:13;101238.19;;;-1.39;81.41
45523;BME280;31254;51.680;5.394;2022-11-20T08:26:40;101236.19;;;-1.34;81.44
45523;BME280;31254;51.680;5.394;2022-11-20T08:29:07;101230.38;;;-1.23;81.15
45523;BME280;31254;51.680;5.394;2022-11-20T08:31:34;101237.91;;;-1.11;81.46
45523;BME280;31254;51.680;5.394;2022-11-20T08:34:01;101226.81;;;-1.02;80.73
45523;BME280;31254;51.680;5.394;2022-11-20T08:36:34;101244.22;;;-0.92;81.29
45523;BME280;31254;51.680;5.394;2022-11-20T08:39:02;101241.34;;;-0.87;81.43
45523;BME280;31254;51.680;5.394;2022-11-20T08:41:31;101214.41;;;-0.84;81.28
45523;BME280;31254;51.680;5.394;2022-11-20T08:44:02;101230.75;;;-0.69;81.13
45523;BME280;31254;51.680;5.394;2022-11-20T08:46:35;101224.22;;;-0.64;81.04
45523;BME280;31254;51.680;5.394;2022-11-20T08:49:07;101230.84;;;-0.52;81.06
45523;BME280;31254;51.680;5.394;2022-11-20T08:51:34;101245.38;;;-0.37;80.59
45523;BME280;31254;51.680;5.394;2022-11-20T08:54:01;101226.69;;;-0.39;80.90
45523;BME280;31254;51.680;5.394;2022-11-20T08:56:28;101239.63;;;-0.29;80.79
45523;BME280;31254;51.680;5.394;2022-11-20T08:58:55;101234.66;;;-0.18;80.73
45523;BME280;31254;51.680;5.394;2022-11-20T09:01:44;101225.41;;;-0.11;80.41
45523;BME280;31254;51.680;5.394;2022-11-20T09:04:10;101210.88;;;-0.07;80.24
45523;BME280;31254;51.680;5.394;2022-11-20T09:06:38;101213.91;;;0.05;80.25
45523;BME280;31254;51.680;5.394;2022-11-20T09:09:04;101224.06;;;0.17;82.36
45523;BME280;31254;51.680;5.394;2022-11-20T09:11:32;101224.41;;;0.47;82.79
45523;BME280;31254;51.680;5.394;2022-11-20T09:13:59;101201.53;;;0.39;82.02
45523;BME280;31254;51.680;5.394;2022-11-20T09:16:26;101223.63;;;0.63;81.82
45523;BME280;31254;51.680;5.394;2022-11-20T09:18:55;101215.19;;;0.70;81.52
45523;BME280;31254;51.680;5.394;2022-11-20T09:21:41;101196.09;;;0.94;82.80
45523;BME280;31254;51.680;5.394;2022-11-20T09:24:08;101209.19;;;1.00;81.98
45523;BME280;31254;51.680;5.394;2022-11-20T09:26:35;101178.06;;;0.96;81.64
45523;BME280;31254;51.680;5.394;2022-11-20T09:29:01;101185.66;;;1.05;80.92
45523;BME280;31254;51.680;5.394;2022-11-20T09:31:28;101187.91;;;1.13;80.90
45523;BME280;31254;51.680;5.394;2022-11-20T09:33:58;101197.31;;;1.22;80.89
45523;BME280;31254;51.680;5.394;2022-11-20T09:36:24;101197.94;;;1.27;80.64
45523;BME280;31254;51.680;5.394;2022-11-20T09:38:51;101194.19;;;1.30;80.96
45523;BME280;31254;51.680;5.394;2022-11-20T09:46:54;101179.72;;;1.50;80.45
45523;BME280;31254;51.680;5.394;2022-11-20T09:49:32;101173.63;;;1.62;80.22
45523;BME280;31254;51.680;5.394;2022-11-20T09:54:58;101168.13;;;1.81;80.10
45523;BME280;31254;51.680;5.394;2022-11-20T09:57:35;101151.13;;;1.80;79.75
45523;BME280;31254;51.680;5.394;2022-11-20T10:00:05;101163.09;;;1.91;79.77
45523;BME280;31254;51.680;5.394;2022-11-20T10:02:37;101151.28;;;1.93;79.24
45523;BME280;31254;51.680;5.394;2022-11-20T10:10:22;101143.28;;;1.76;80.22
45523;BME280;31254;51.680;5.394;2022-11-20T10:15:34;101144.31;;;1.73;80.54
45523;BME280;31254;51.680;5.394;2022-11-20T10:26:22;101110.22;;;1.58;80.96
45523;BME280;31254;51.680;5.394;2022-11-20T10:29:08;101106.69;;;1.57;81.05
45523;BME280;31254;51.680;5.394;2022-11-20T10:31:38;101094.25;;;1.55;80.85
45523;BME280;31254;51.680;5.394;2022-11-20T10:34:20;101093.84;;;1.62;80.55
45523;BME280;31254;51.680;5.394;2022-11-20T10:36:54;101080.06;;;1.69;80.83
45523;BME280;31254;51.680;5.394;2022-11-20T10:39:29;101070.16;;;1.69;80.66
45523;BME280;31254;51.680;5.394;2022-11-20T10:42:01;101050.38;;;1.70;81.06
45523;BME280;31254;51.680;5.394;2022-11-20T10:44:33;101055.63;;;1.88;81.11
45523;BME280;31254;51.680;5.394;2022-11-20T10:47:22;101051.28;;;2.01;80.69
45523;BME280;31254;51.680;5.394;2022-11-20T10:49:52;101038.25;;;2.09;79.87
45523;BME280;31254;51.680;5.394;2022-11-20T10:57:50;101036.53;;;2.53;78.98
45523;BME280;31254;51.680;5.394;2022-11-20T11:00:21;101031.81;;;2.56;79.45
45523;BME280;31254;51.680;5.394;2022-11-20T11:02:49;101029.13;;;2.56;80.08
45523;BME280;31254;51.680;5.394;2022-11-20T11:07:52;101018.34;;;2.56;80.85
45523;BME280;31254;51.680;5.394;2022-11-20T11:10:40;101012.88;;;2.58;80.74
45523;BME280;31254;51.680;5.394;2022-11-20T11:13:28;101006.22;;;2.64;80.75
45523;BME280;31254;51.680;5.394;2022-11-20T11:15:56;101001.81;;;2.63;80.67
45523;BME280;31254;51.680;5.394;2022-11-20T11:18:32;101010.56;;;2.66;81.35
45523;BME280;31254;51.680;5.394;2022-11-20T11:21:02;101007.59;;;2.71;80.77
45523;BME280;31254;51.680;5.394;2022-11-20T11:23:35;101010.09;;;2.74;80.97
45523;BME280;31254;51.680;5.394;2022-11-20T11:26:05;101012.59;;;2.77;80.92
45523;BME280;31254;51.680;5.394;2022-11-20T11:28:33;101003.53;;;2.78;81.14
45523;BME280;31254;51.680;5.394;2022-11-20T11:30:59;101004.72;;;2.88;80.93
45523;BME280;31254;51.680;5.394;2022-11-20T11:33:31;101002.59;;;2.93;81.84
45523;BME280;31254;51.680;5.394;2022-11-20T11:36:02;100996.22;;;2.95;81.67
45523;BME280;31254;51.680;5.394;2022-11-20T11:38:38;100995.75;;;3.02;81.89
45523;BME280;31254;51.680;5.394;2022-11-20T11:41:06;100985.06;;;3.01;81.59
45523;BME280;31254;51.680;5.394;2022-11-20T11:43:36;100986.59;;;3.05;81.68
45523;BME280;31254;51.680;5.394;2022-11-20T11:46:26;100984.38;;;3.11;81.98
45523;BME280;31254;51.680;5.394;2022-11-20T11:51:22;100973.41;;;3.15;82.04
45523;BME280;31254;51.680;5.394;2022-11-20T11:53:52;100967.63;;;3.21;81.72
45523;BME280;31254;51.680;5.394;2022-11-20T11:56:19;100960.19;;;3.24;81.75
45523;BME280;31254;51.680;5.394;2022-11-20T11:58:48;100952.84;;;3.26;82.39
45523;BME280;31254;51.680;5.394;2022-11-20T12:01:41;100948.78;;;3.34;82.00
45523;BME280;31254;51.680;5.394;2022-11-20T12:07:42;100928.53;;;3.41;82.17
45523;BME280;31254;51.680;5.394;2022-11-20T12:10:23;100920.34;;;3.42;81.89
45523;BME280;31254;51.680;5.394;2022-11-20T12:13:01;100905.13;;;3.41;81.72
45523;BME280;31254;51.680;5.394;2022-11-20T12:15:30;100891.63;;;3.41;81.88
45523;BME280;31254;51.680;5.394;2022-11-20T12:17:57;100887.34;;;3.39;81.46
45523;BME280;31254;51.680;5.394;2022-11-20T12:20:29;100886.16;;;3.43;82.59
45523;BME280;31254;51.680;5.394;2022-11-20T12:23:12;100886.25;;;3.41;82.71
45523;BME280;31254;51.680;5.394;2022-11-20T12:25:44;100866.72;;;3.38;82.94
45523;BME280;31254;51.680;5.394;2022-11-20T12:28:22;100869.97;;;3.43;82.84
45523;BME280;31254;51.680;5.394;2022-11-20T12:31:02;100859.91;;;3.45;83.09
45523;BME280;31254;51.680;5.394;2022-11-20T12:47:57;100844.47;;;3.74;82.65
45523;BME280;31254;51.680;5.394;2022-11-20T12:50:40;100837.22;;;3.75;82.13
45523;BME280;31254;51.680;5.394;2022-11-20T13:01:53;100813.16;;;3.97;82.95
45523;BME280;31254;51.680;5.394;2022-11-20T13:04:59;100795.34;;;3.95;83.06
45523;BME280;31254;51.680;5.394;2022-11-20T13:07:29;100793.41;;;3.97;83.11
45523;BME280;31254;51.680;5.394;2022-11-20T13:10:00;100796.44;;;4.05;82.72
45523;BME280;31254;51.680;5.394;2022-11-20T13:12:34;100788.22;;;4.07;82.72
45523;BME280;31254;51.680;5.394;2022-11-20T13:17:58;100767.81;;;4.02;83.58
45523;BME280;31254;51.680;5.394;2022-11-20T13:20:29;100769.53;;;4.03;83.30
45523;BME280;31254;51.680;5.394;2022-11-20T13:22:56;100750.22;;;3.97;83.97
45523;BME280;31254;51.680;5.394;2022-11-20T13:27:54;100749.97;;;4.13;84.35
45523;BME280;31254;51.680;5.394;2022-11-20T13:30:27;100745.22;;;4.16;83.43
45523;BME280;31254;51.680;5.394;2022-11-20T13:35:42;100747.69;;;4.19;84.31
45523;BME280;31254;51.680;5.394;2022-11-20T13:38:13;100745.13;;;4.18;84.19
45523;BME280;31254;51.680;5.394;2022-11-20T13:41:00;100733.75;;;4.13;84.71
45523;BME280;31254;51.680;5.394;2022-11-20T13:43:47;100742.09;;;4.10;84.74
45523;BME280;31254;51.680;5.394;2022-11-20T13:46:14;100723.53;;;4.05;84.19
45523;BME280;31254;51.680;5.394;2022-11-20T13:48:45;100710.25;;;4.02;84.83
45523;BME280;31254;51.680;5.394;2022-11-20T14:02:19;100695.00;;;4.14;84.70
45523;BME280;31254;51.680;5.394;2022-11-20T14:04:57;100693.56;;;4.21;85.01
45523;BME280;31254;51.680;5.394;2022-11-20T14:07:35;100675.13;;;4.15;85.47
45523;BME280;31254;51.680;5.394;2022-11-20T14:10:06;100669.50;;;4.18;84.99
45523;BME280;31254;51.680;5.394;2022-11-20T14:12:44;100687.94;;;4.24;84.95
45523;BME280;31254;51.680;5.394;2022-11-20T14:15:30;100668.28;;;4.22;85.72
45523;BME280;31254;51.680;5.394;2022-11-20T14:18:15;100654.50;;;4.14;85.93
45523;BME280;31254;51.680;5.394;2022-11-20T14:20:45;100667.56;;;4.20;86.10
45523;BME280;31254;51.680;5.394;2022-11-20T14:23:23;100664.84;;;4.20;85.40
45523;BME280;31254;51.680;5.394;2022-11-20T14:25:55;100648.47;;;4.10;86.14
45523;BME280;31254;51.680;5.394;2022-11-20T14:28:30;100663.34;;;4.16;85.63
45523;BME280;31254;51.680;5.394;2022-11-20T14:30:59;100637.03;;;4.07;85.31
45523;BME280;31254;51.680;5.394;2022-11-20T14:33:28;100661.63;;;4.15;86.10
45523;BME280;31254;51.680;5.394;2022-11-20T14:35:56;100642.06;;;4.11;86.01